Aérodrome :
LOGIN :

S'inscrire | Disclaimer

   EN    FR    IT 

 










Légende :    VFR   VFR Marginal   IFR   IFR Intensif   IFR Très Intensif
Visi : 
Plafond : 
>= 8 km
>= 3000ft
5 à 8 km
1000 à 3000 ft
1500m à 5 km
500 à 1000 ft
800 à 1500m
200 à 500 ft
< 800m
< 200 ft
Symboles :   Orages  Brouillard  Fortes neiges  Fortes précipitations  Vent > 20 kt
SIGMETs :   Divers  Orages  Givrage  Turbulence  Onde Orograph.  Cendres Volcan.






- Altitude de l'aérodrome : 1585 ft
- Code IATA : SIR


LSGS - Sion

DERNIER METAR :
  • 100650Z 08003KT CAVOK 11/01 Q1025

METARs EXPIRÉS :
  • 100620Z 09005KT CAVOK 09/02 Q1025
  • 100550Z 07003KT CAVOK 08/01 Q1025
  • 100520Z 07003KT 030V090 CAVOK 08/01 Q1025
  • 100450Z 08003KT CAVOK 09/01 Q1025
  • 100420Z AUTO 08004KT 020V110 CAVOK 08/01 Q1024

TAF TAF LSGS
Valide du 10 à 06h jusqu'au 10 à 15h UTC


100525Z 1006/1015 VRB03KT CAVOK
BECMG 1011/1013 25010KT 9999 FEW080



MET'MAP, la Météo Aéronautique d'un coup d'oeil ! - Copyright ORBIFLY Décembre 2007 - Disclaimer

ORBIFLY MET'MAP TEAM :

Programmation & Développement : Alexandra Zaïnal
Sur une idée originale de : Baudouin d'Aumeries
Assistance à la programmation : Marc-Olivier Méhu
Soutien technique & logistique : Manuel Goepfert

Contact : metmap@orbifly.com




SOURCES & CREDITS :

   NOAA